createdAt,value
2022-12-17T00:02:46.560Z,2.95
2022-12-17T00:07:07.707Z,2.94
2022-12-17T00:11:29.559Z,2.93
2022-12-17T00:15:50.254Z,2.93
2022-12-17T00:20:11.111Z,2.93
2022-12-17T00:24:37.925Z,2.95
2022-12-17T00:29:00.492Z,2.94
2022-12-17T00:33:22.053Z,2.94
2022-12-17T00:37:42.470Z,2.96
2022-12-17T00:42:03.250Z,2.96
2022-12-17T00:46:25.293Z,2.99
2022-12-17T00:50:45.993Z,3.00
2022-12-17T00:55:06.306Z,2.99
2022-12-17T00:59:27.436Z,3.00
2022-12-17T01:03:49.391Z,2.99
2022-12-17T01:08:10.323Z,3.02
2022-12-17T01:12:30.795Z,3.02
2022-12-17T01:16:52.321Z,3.05
2022-12-17T01:21:16.191Z,3.06
2022-12-17T01:25:36.632Z,3.06
2022-12-17T01:30:08.273Z,3.06
2022-12-17T01:34:28.944Z,3.07
2022-12-17T01:38:50.657Z,3.08
2022-12-17T01:43:11.331Z,3.08
2022-12-17T01:47:31.859Z,3.07
2022-12-17T01:51:54.741Z,3.06
2022-12-17T01:56:17.119Z,3.06
2022-12-17T02:00:38.842Z,3.06
2022-12-17T02:04:59.819Z,3.06
2022-12-17T02:09:29.148Z,3.08
2022-12-17T02:13:55.080Z,3.08
2022-12-17T02:18:19.866Z,3.08
2022-12-17T02:22:51.119Z,3.10
2022-12-17T02:27:16.801Z,3.11
2022-12-17T02:31:38.449Z,3.12
2022-12-17T02:36:04.302Z,3.13
2022-12-17T02:40:25.501Z,3.13
2022-12-17T02:44:48.808Z,3.14
2022-12-17T02:49:09.321Z,3.13
2022-12-17T02:53:30.600Z,3.15
2022-12-17T02:57:56.829Z,3.17
2022-12-17T03:02:19.139Z,3.18
2022-12-17T03:06:40.010Z,3.20
2022-12-17T03:11:00.733Z,3.22
2022-12-17T03:15:22.173Z,3.21
2022-12-17T03:19:44.573Z,3.19
2022-12-17T03:24:04.904Z,3.18
2022-12-17T03:28:27.691Z,3.19
2022-12-17T03:32:47.882Z,3.17
2022-12-17T03:37:09.796Z,3.15
2022-12-17T03:41:30.559Z,3.15
2022-12-17T03:45:51.496Z,3.16
2022-12-17T03:50:11.911Z,3.14
2022-12-17T03:55:19.340Z,3.12
2022-12-17T03:59:39.795Z,3.08
2022-12-17T04:04:00.919Z,3.06
2022-12-17T04:08:21.123Z,3.01
2022-12-17T04:12:43.305Z,3.04
2022-12-17T04:17:03.588Z,2.96
2022-12-17T04:21:24.484Z,3.01
2022-12-17T04:25:44.916Z,2.96
2022-12-17T04:30:06.932Z,3.01
2022-12-17T04:34:27.368Z,2.99
2022-12-17T04:38:48.171Z,3.01
2022-12-17T04:43:08.402Z,2.98
2022-12-17T04:47:30.413Z,2.98
2022-12-17T04:51:50.528Z,2.98
2022-12-17T04:56:13.127Z,2.96
2022-12-17T05:00:33.985Z,2.92
2022-12-17T05:04:56.560Z,2.92
2022-12-17T05:09:17.343Z,2.92
2022-12-17T05:13:38.195Z,2.85
2022-12-17T05:17:58.750Z,2.90
2022-12-17T05:22:21.247Z,2.93
2022-12-17T05:26:43.571Z,2.94
2022-12-17T05:35:26.824Z,2.92
2022-12-17T05:39:49.099Z,2.92
2022-12-17T05:44:09.287Z,2.93
2022-12-17T05:48:30.116Z,2.87
2022-12-17T05:52:50.331Z,2.90
2022-12-17T05:57:12.785Z,2.89
2022-12-17T06:01:33.193Z,2.90
2022-12-17T06:05:54.485Z,2.90
2022-12-17T06:10:15.300Z,2.89
2022-12-17T06:14:38.713Z,2.89
2022-12-17T06:18:58.907Z,2.86
2022-12-17T06:23:23.991Z,2.82
2022-12-17T06:27:44.571Z,2.80
2022-12-17T06:32:07.091Z,2.77
2022-12-17T06:36:27.926Z,2.73
2022-12-17T06:40:48.590Z,2.72
2022-12-17T06:45:08.727Z,2.71
2022-12-17T06:49:30.321Z,2.68
2022-12-17T06:53:50.855Z,2.69
2022-12-17T06:58:15.329Z,2.71
2022-12-17T07:02:36.090Z,2.72
2022-12-17T07:06:57.875Z,2.74
2022-12-17T07:11:18.746Z,2.75
2022-12-17T07:15:39.481Z,2.78
2022-12-17T07:19:59.550Z,2.79
2022-12-17T07:24:21.747Z,2.79
2022-12-17T07:28:42.467Z,2.81
2022-12-17T07:33:02.881Z,2.85
2022-12-17T07:37:23.566Z,2.88
2022-12-17T07:41:46.296Z,2.90
2022-12-17T07:46:06.264Z,2.95
2022-12-17T07:50:27.541Z,2.95
2022-12-17T07:54:47.957Z,2.96
2022-12-17T07:59:09.638Z,2.99
2022-12-17T08:03:30.380Z,3.02
2022-12-17T08:07:51.200Z,3.05
2022-12-17T08:12:11.694Z,3.09
2022-12-17T08:16:33.716Z,3.13
2022-12-17T08:20:54.357Z,3.17
2022-12-17T08:25:14.932Z,3.20
2022-12-17T08:29:35.835Z,3.25
2022-12-17T08:33:57.819Z,3.30
2022-12-17T08:38:20.716Z,3.34
2022-12-17T08:42:41.575Z,3.39
2022-12-17T08:47:02.389Z,3.43
2022-12-17T08:51:27.297Z,3.50
2022-12-17T08:55:48.418Z,3.56
2022-12-17T09:00:09.302Z,3.62
2022-12-17T09:04:30.311Z,3.72
2022-12-17T09:08:48.916Z,3.83
2022-12-17T09:13:09.728Z,3.92
2022-12-17T09:17:30.321Z,3.99
2022-12-17T09:21:51.145Z,4.04
2022-12-17T09:26:14.641Z,4.10
2022-12-17T09:30:35.591Z,4.14
2022-12-17T09:34:56.099Z,4.20
2022-12-17T09:39:17.537Z,4.35
2022-12-17T09:43:51.557Z,4.53
2022-12-17T09:48:25.853Z,4.73
2022-12-17T09:52:53.270Z,4.86
2022-12-17T09:57:15.759Z,4.95
2022-12-17T10:01:39.495Z,5.00
2022-12-17T10:06:01.040Z,5.02
2022-12-17T10:10:33.623Z,5.02
2022-12-17T10:15:06.801Z,4.99
2022-12-17T10:19:33.978Z,4.94
2022-12-17T10:23:54.411Z,4.86
2022-12-17T10:28:20.272Z,4.80
2022-12-17T10:32:43.271Z,4.77
2022-12-17T10:37:22.813Z,4.75
2022-12-17T10:41:57.068Z,4.74
2022-12-17T10:46:17.558Z,4.73
2022-12-17T10:50:40.526Z,4.72
2022-12-17T10:55:05.025Z,4.73
2022-12-17T10:59:31.801Z,4.79
2022-12-17T11:04:06.128Z,4.83
2022-12-17T11:08:27.430Z,4.84
2022-12-17T11:12:57.437Z,4.89
2022-12-17T11:17:21.620Z,4.89
2022-12-17T11:21:45.522Z,4.82
2022-12-17T11:26:15.015Z,4.76
2022-12-17T11:30:37.722Z,4.66
2022-12-17T11:35:16.069Z,4.58
2022-12-17T11:39:51.645Z,4.60
2022-12-17T11:44:21.790Z,4.63
2022-12-17T11:48:49.921Z,4.61
2022-12-17T11:53:29.031Z,4.69
2022-12-17T11:58:00.185Z,4.67
2022-12-17T12:02:33.911Z,4.61
2022-12-17T12:07:11.722Z,4.60
2022-12-17T12:11:46.016Z,4.54
2022-12-17T12:16:39.247Z,4.48
2022-12-17T12:21:28.272Z,4.46
2022-12-17T12:25:55.874Z,4.47
2022-12-17T12:30:25.693Z,4.51
2022-12-17T12:34:50.392Z,4.57
2022-12-17T12:39:14.538Z,4.65
2022-12-17T12:43:41.801Z,4.74
2022-12-17T12:48:12.710Z,4.82
2022-12-17T12:52:51.297Z,4.91
2022-12-17T12:57:12.297Z,4.99
2022-12-17T13:01:34.441Z,5.10
2022-12-17T13:05:40.627Z,5.21
2022-12-17T13:09:50.506Z,5.26
2022-12-17T13:14:00.285Z,5.24
2022-12-17T13:18:20.547Z,5.22
2022-12-17T13:22:30.804Z,5.13
2022-12-17T13:26:45.923Z,5.19
2022-12-17T13:30:49.566Z,5.17
2022-12-17T13:35:15.808Z,5.12
2022-12-17T13:39:33.791Z,5.04
2022-12-17T13:43:43.832Z,5.00
2022-12-17T13:47:55.411Z,4.92
2022-12-17T13:52:11.471Z,4.84
2022-12-17T13:56:17.106Z,4.72
2022-12-17T14:00:23.569Z,4.49
2022-12-17T14:04:28.443Z,4.48
2022-12-17T14:08:35.436Z,4.43
2022-12-17T14:12:39.259Z,4.31
2022-12-17T14:16:50.455Z,4.18
2022-12-17T14:20:56.937Z,4.05
2022-12-17T14:25:02.554Z,3.88
2022-12-17T14:29:20.118Z,3.81
2022-12-17T14:33:29.041Z,3.71
2022-12-17T14:37:34.181Z,3.61
2022-12-17T14:41:58.199Z,3.54
2022-12-17T14:46:20.056Z,3.46
2022-12-17T14:50:31.431Z,3.31
2022-12-17T14:54:34.888Z,3.32
2022-12-17T14:58:46.934Z,3.26
2022-12-17T15:02:53.827Z,3.21
2022-12-17T15:06:58.377Z,3.12
2022-12-17T15:11:02.272Z,3.05
2022-12-17T15:15:09.930Z,2.96
2022-12-17T15:19:13.200Z,2.89
2022-12-17T15:23:19.540Z,2.85
2022-12-17T15:27:22.664Z,2.76
2022-12-17T15:31:35.039Z,2.64
2022-12-17T15:35:41.011Z,2.67
2022-12-17T15:39:45.350Z,2.64
2022-12-17T15:43:48.968Z,2.61
2022-12-17T15:47:53.460Z,2.57
2022-12-17T15:51:56.861Z,2.52
2022-12-17T15:56:01.123Z,2.40
2022-12-17T16:00:04.545Z,2.41
2022-12-17T16:04:16.760Z,2.37
2022-12-17T16:08:21.332Z,2.32
2022-12-17T16:12:24.319Z,2.29
2022-12-17T16:16:28.040Z,2.26
2022-12-17T16:20:32.741Z,2.19
2022-12-17T16:24:38.574Z,2.13
2022-12-17T16:28:41.692Z,2.04
2022-12-17T16:32:45.071Z,1.96
2022-12-17T16:36:49.733Z,1.92
2022-12-17T16:40:56.100Z,1.80
2022-12-17T16:44:59.953Z,1.78
2022-12-17T16:49:07.475Z,1.71
2022-12-17T16:53:12.768Z,1.61
2022-12-17T16:57:16.229Z,1.48
2022-12-17T17:01:21.156Z,1.33
2022-12-17T17:05:24.839Z,1.21
2022-12-17T17:09:29.898Z,1.08
2022-12-17T17:13:33.483Z,0.92
2022-12-17T17:17:54.470Z,0.76
2022-12-17T17:21:59.657Z,0.58
2022-12-17T17:26:05.258Z,0.42
2022-12-17T17:30:09.824Z,0.35
2022-12-17T17:34:15.318Z,0.33
2022-12-17T17:38:18.944Z,0.28
2022-12-17T17:42:24.140Z,0.20
2022-12-17T17:46:29.283Z,0.15
2022-12-17T17:50:32.743Z,0.10
2022-12-17T17:54:36.664Z,0.05
2022-12-17T17:58:41.875Z,0.03
2022-12-17T18:02:45.482Z,0.02
2022-12-17T18:07:23.238Z,0.03
2022-12-17T18:11:21.506Z,0.01
2022-12-17T18:15:27.271Z,0.00
2022-12-17T18:19:33.942Z,-0.09
2022-12-17T18:23:38.791Z,-0.19
2022-12-17T18:27:42.762Z,-0.26
2022-12-17T18:31:51.631Z,-0.33
2022-12-17T18:35:55.547Z,-0.38
2022-12-17T18:40:01.563Z,-0.43
2022-12-17T18:44:09.857Z,-0.48
2022-12-17T18:48:14.839Z,-0.56
2022-12-17T18:52:18.252Z,-0.66
2022-12-17T18:56:44.824Z,-0.78
2022-12-17T19:00:46.996Z,-0.89
2022-12-17T19:04:52.232Z,-0.99
2022-12-17T19:08:55.800Z,-1.06
2022-12-17T19:13:03.655Z,-1.07
2022-12-17T19:17:07.115Z,-1.04
2022-12-17T19:21:17.020Z,-1.00
2022-12-17T19:25:20.361Z,-0.97
2022-12-17T19:29:23.876Z,-0.94
2022-12-17T19:33:27.373Z,-0.95
2022-12-17T19:37:32.389Z,-1.01
2022-12-17T19:41:36.240Z,-1.14
2022-12-17T19:45:40.329Z,-1.29
2022-12-17T19:49:43.723Z,-1.45
2022-12-17T19:53:51.912Z,-1.62
2022-12-17T19:57:58.604Z,-1.77
2022-12-17T20:02:04.701Z,-1.88
2022-12-17T20:06:14.992Z,-1.95
2022-12-17T20:14:48.283Z,-2.06
2022-12-17T20:18:59.311Z,-2.12
2022-12-17T20:23:07.231Z,-2.17
2022-12-17T20:27:13.005Z,-2.22
2022-12-17T20:31:25.312Z,-2.24
2022-12-17T20:35:31.156Z,-2.25
2022-12-17T20:39:34.738Z,-2.25
2022-12-17T20:43:49.323Z,-2.27
2022-12-17T20:47:53.330Z,-2.28
2022-12-17T20:52:00.983Z,-2.30
2022-12-17T20:56:07.715Z,-2.35
2022-12-17T21:00:15.116Z,-2.38
2022-12-17T21:04:19.149Z,-2.40
2022-12-17T21:08:24.395Z,-2.38
2022-12-17T21:12:51.365Z,-2.39
2022-12-17T21:16:57.802Z,-2.39
2022-12-17T21:21:04.590Z,-2.42
2022-12-17T21:25:09.371Z,-2.45
2022-12-17T21:29:13.148Z,-2.45
2022-12-17T21:33:18.228Z,-2.43
2022-12-17T21:37:21.433Z,-2.40
2022-12-17T21:41:28.188Z,-2.35
2022-12-17T21:45:37.815Z,-2.35
2022-12-17T21:49:43.029Z,-2.34
2022-12-17T21:53:46.666Z,-2.33
2022-12-17T21:57:50.318Z,-2.33
2022-12-17T22:01:54.349Z,-2.36
2022-12-17T22:05:59.171Z,-2.34
2022-12-17T22:10:16.199Z,-2.37
2022-12-17T22:14:56.480Z,-2.39
2022-12-17T22:19:01.189Z,-2.42
2022-12-17T22:23:06.334Z,-2.47
2022-12-17T22:27:09.955Z,-2.52
2022-12-17T22:31:31.545Z,-2.56
2022-12-17T22:37:28.149Z,-2.61
2022-12-17T22:44:30.450Z,-2.64
2022-12-17T22:44:44.342Z,-2.67
2022-12-17T22:48:48.656Z,-2.72
2022-12-17T22:52:51.828Z,-2.73
2022-12-17T22:57:32.233Z,-2.74
2022-12-17T23:01:23.097Z,-2.75
2022-12-17T23:05:28.512Z,-2.73
2022-12-17T23:09:31.857Z,-2.75
2022-12-17T23:13:37.278Z,-2.84
2022-12-17T23:17:40.751Z,-2.97
2022-12-17T23:21:45.646Z,-3.16
2022-12-17T23:25:49.174Z,-3.40
2022-12-17T23:29:54.452Z,-3.67
2022-12-17T23:33:57.527Z,-3.95
2022-12-17T23:38:01.129Z,-4.15
2022-12-17T23:42:04.392Z,-4.29
2022-12-17T23:46:09.898Z,-4.35
2022-12-17T23:50:13.291Z,-4.37
2022-12-17T23:54:16.907Z,-4.35
2022-12-17T23:58:20.001Z,-4.30
